sensor_id;sensor_type;location;lat;lon;timestamp;P1;durP1;ratioP1;P2;durP2;ratioP2
13588;SDS011;6865;52.552;13.434;2023-10-31T00:01:19;8.03;;;4.90;;
13588;SDS011;6865;52.552;13.434;2023-10-31T00:03:46;8.93;;;4.77;;
13588;SDS011;6865;52.552;13.434;2023-10-31T00:06:13;10.20;;;5.43;;
13588;SDS011;6865;52.552;13.434;2023-10-31T00:08:40;7.63;;;4.90;;
13588;SDS011;6865;52.552;13.434;2023-10-31T00:11:06;7.20;;;4.63;;
13588;SDS011;6865;52.552;13.434;2023-10-31T00:13:33;8.07;;;4.80;;
13588;SDS011;6865;52.552;13.434;2023-10-31T00:16:00;7.33;;;4.70;;
13588;SDS011;6865;52.552;13.434;2023-10-31T00:18:27;8.57;;;4.47;;
13588;SDS011;6865;52.552;13.434;2023-10-31T00:20:54;7.17;;;4.37;;
13588;SDS011;6865;52.552;13.434;2023-10-31T00:23:22;9.63;;;4.90;;
13588;SDS011;6865;52.552;13.434;2023-10-31T00:25:48;6.60;;;4.77;;
13588;SDS011;6865;52.552;13.434;2023-10-31T00:28:15;10.50;;;4.63;;
13588;SDS011;6865;52.552;13.434;2023-10-31T00:30:42;7.13;;;4.60;;
13588;SDS011;6865;52.552;13.434;2023-10-31T00:33:08;8.43;;;4.60;;
13588;SDS011;6865;52.552;13.434;2023-10-31T00:35:35;8.07;;;4.87;;
13588;SDS011;6865;52.552;13.434;2023-10-31T00:38:02;7.07;;;4.77;;
13588;SDS011;6865;52.552;13.434;2023-10-31T00:40:28;9.20;;;5.00;;
13588;SDS011;6865;52.552;13.434;2023-10-31T00:42:55;7.47;;;5.00;;
13588;SDS011;6865;52.552;13.434;2023-10-31T00:45:24;9.80;;;4.93;;
13588;SDS011;6865;52.552;13.434;2023-10-31T00:47:51;8.67;;;4.70;;
13588;SDS011;6865;52.552;13.434;2023-10-31T00:50:17;7.07;;;5.33;;
13588;SDS011;6865;52.552;13.434;2023-10-31T00:52:45;7.27;;;4.80;;
13588;SDS011;6865;52.552;13.434;2023-10-31T00:55:12;8.87;;;5.30;;
13588;SDS011;6865;52.552;13.434;2023-10-31T00:57:38;7.23;;;4.90;;
13588;SDS011;6865;52.552;13.434;2023-10-31T01:00:05;9.93;;;5.00;;
13588;SDS011;6865;52.552;13.434;2023-10-31T01:02:32;9.73;;;5.20;;
13588;SDS011;6865;52.552;13.434;2023-10-31T01:04:59;8.03;;;4.83;;
13588;SDS011;6865;52.552;13.434;2023-10-31T01:07:26;8.97;;;5.30;;
13588;SDS011;6865;52.552;13.434;2023-10-31T01:09:53;9.93;;;4.97;;
13588;SDS011;6865;52.552;13.434;2023-10-31T01:12:20;11.10;;;5.37;;
13588;SDS011;6865;52.552;13.434;2023-10-31T01:14:46;6.87;;;4.93;;
13588;SDS011;6865;52.552;13.434;2023-10-31T01:17:13;8.53;;;5.20;;
13588;SDS011;6865;52.552;13.434;2023-10-31T01:19:40;7.67;;;5.20;;
13588;SDS011;6865;52.552;13.434;2023-10-31T01:22:06;8.50;;;5.00;;
13588;SDS011;6865;52.552;13.434;2023-10-31T01:24:33;10.37;;;5.63;;
13588;SDS011;6865;52.552;13.434;2023-10-31T01:27:01;8.40;;;5.60;;
13588;SDS011;6865;52.552;13.434;2023-10-31T01:29:27;7.60;;;5.60;;
13588;SDS011;6865;52.552;13.434;2023-10-31T01:31:55;9.67;;;5.30;;
13588;SDS011;6865;52.552;13.434;2023-10-31T01:34:28;8.60;;;5.10;;
13588;SDS011;6865;52.552;13.434;2023-10-31T01:36:55;8.40;;;5.40;;
13588;SDS011;6865;52.552;13.434;2023-10-31T01:39:21;6.87;;;5.30;;
13588;SDS011;6865;52.552;13.434;2023-10-31T01:41:48;8.80;;;5.20;;
13588;SDS011;6865;52.552;13.434;2023-10-31T01:44:15;11.03;;;5.50;;
13588;SDS011;6865;52.552;13.434;2023-10-31T01:46:42;8.00;;;5.37;;
13588;SDS011;6865;52.552;13.434;2023-10-31T01:49:08;7.53;;;5.30;;
13588;SDS011;6865;52.552;13.434;2023-10-31T01:51:35;8.10;;;5.73;;
13588;SDS011;6865;52.552;13.434;2023-10-31T01:54:02;8.30;;;5.67;;
13588;SDS011;6865;52.552;13.434;2023-10-31T01:56:28;8.07;;;5.33;;
13588;SDS011;6865;52.552;13.434;2023-10-31T01:58:55;11.23;;;5.90;;
13588;SDS011;6865;52.552;13.434;2023-10-31T02:01:22;9.63;;;5.50;;
13588;SDS011;6865;52.552;13.434;2023-10-31T02:03:49;8.83;;;5.43;;
13588;SDS011;6865;52.552;13.434;2023-10-31T02:06:15;7.10;;;5.10;;
13588;SDS011;6865;52.552;13.434;2023-10-31T02:08:42;8.63;;;5.97;;
13588;SDS011;6865;52.552;13.434;2023-10-31T02:11:09;10.43;;;6.03;;
13588;SDS011;6865;52.552;13.434;2023-10-31T02:13:36;12.57;;;5.97;;
13588;SDS011;6865;52.552;13.434;2023-10-31T02:16:04;10.07;;;6.23;;
13588;SDS011;6865;52.552;13.434;2023-10-31T02:18:31;11.17;;;6.30;;
13588;SDS011;6865;52.552;13.434;2023-10-31T02:20:58;8.60;;;5.87;;
13588;SDS011;6865;52.552;13.434;2023-10-31T02:23:25;7.07;;;5.37;;
13588;SDS011;6865;52.552;13.434;2023-10-31T02:25:52;7.63;;;5.80;;
13588;SDS011;6865;52.552;13.434;2023-10-31T02:28:19;7.93;;;5.73;;
13588;SDS011;6865;52.552;13.434;2023-10-31T02:30:45;9.10;;;5.87;;
13588;SDS011;6865;52.552;13.434;2023-10-31T02:33:12;9.43;;;6.50;;
13588;SDS011;6865;52.552;13.434;2023-10-31T02:35:39;10.93;;;5.87;;
13588;SDS011;6865;52.552;13.434;2023-10-31T02:38:05;8.40;;;5.97;;
13588;SDS011;6865;52.552;13.434;2023-10-31T02:40:32;12.90;;;6.53;;
13588;SDS011;6865;52.552;13.434;2023-10-31T02:42:59;10.77;;;5.87;;
13588;SDS011;6865;52.552;13.434;2023-10-31T02:45:25;8.27;;;6.23;;
13588;SDS011;6865;52.552;13.434;2023-10-31T02:47:52;10.73;;;6.23;;
13588;SDS011;6865;52.552;13.434;2023-10-31T02:50:19;8.80;;;6.20;;
13588;SDS011;6865;52.552;13.434;2023-10-31T02:52:45;9.50;;;5.50;;
13588;SDS011;6865;52.552;13.434;2023-10-31T02:55:12;9.97;;;6.47;;
13588;SDS011;6865;52.552;13.434;2023-10-31T02:57:39;9.00;;;6.07;;
13588;SDS011;6865;52.552;13.434;2023-10-31T03:00:05;9.87;;;6.50;;
13588;SDS011;6865;52.552;13.434;2023-10-31T03:02:33;10.50;;;5.87;;
13588;SDS011;6865;52.552;13.434;2023-10-31T03:04:59;9.73;;;6.23;;
13588;SDS011;6865;52.552;13.434;2023-10-31T03:07:26;8.87;;;6.77;;
13588;SDS011;6865;52.552;13.434;2023-10-31T03:09:53;11.10;;;6.33;;
13588;SDS011;6865;52.552;13.434;2023-10-31T03:12:20;9.90;;;6.30;;
13588;SDS011;6865;52.552;13.434;2023-10-31T03:14:47;10.40;;;6.57;;
13588;SDS011;6865;52.552;13.434;2023-10-31T03:17:13;9.30;;;6.10;;
13588;SDS011;6865;52.552;13.434;2023-10-31T03:19:40;9.73;;;6.50;;
13588;SDS011;6865;52.552;13.434;2023-10-31T03:22:07;8.87;;;6.43;;
13588;SDS011;6865;52.552;13.434;2023-10-31T03:24:33;9.80;;;6.50;;
13588;SDS011;6865;52.552;13.434;2023-10-31T03:27:00;10.40;;;6.10;;
13588;SDS011;6865;52.552;13.434;2023-10-31T03:29:27;7.97;;;6.10;;
13588;SDS011;6865;52.552;13.434;2023-10-31T03:31:53;9.83;;;6.40;;
13588;SDS011;6865;52.552;13.434;2023-10-31T03:34:20;8.03;;;6.50;;
13588;SDS011;6865;52.552;13.434;2023-10-31T03:36:47;10.37;;;5.90;;
13588;SDS011;6865;52.552;13.434;2023-10-31T03:39:13;11.60;;;6.97;;
13588;SDS011;6865;52.552;13.434;2023-10-31T03:41:40;11.30;;;6.27;;
13588;SDS011;6865;52.552;13.434;2023-10-31T03:44:08;12.70;;;7.20;;
13588;SDS011;6865;52.552;13.434;2023-10-31T03:46:35;10.23;;;6.40;;
13588;SDS011;6865;52.552;13.434;2023-10-31T03:49:02;9.77;;;6.60;;
13588;SDS011;6865;52.552;13.434;2023-10-31T03:51:28;10.63;;;7.10;;
13588;SDS011;6865;52.552;13.434;2023-10-31T03:53:56;11.63;;;6.93;;
13588;SDS011;6865;52.552;13.434;2023-10-31T03:56:22;7.53;;;6.20;;
13588;SDS011;6865;52.552;13.434;2023-10-31T03:58:49;11.20;;;7.00;;
13588;SDS011;6865;52.552;13.434;2023-10-31T04:01:16;9.17;;;6.43;;
13588;SDS011;6865;52.552;13.434;2023-10-31T04:03:43;10.27;;;6.47;;
13588;SDS011;6865;52.552;13.434;2023-10-31T04:06:10;12.17;;;7.77;;
13588;SDS011;6865;52.552;13.434;2023-10-31T04:08:36;11.00;;;7.40;;
13588;SDS011;6865;52.552;13.434;2023-10-31T04:11:03;12.90;;;7.70;;
13588;SDS011;6865;52.552;13.434;2023-10-31T04:13:30;8.80;;;6.97;;
13588;SDS011;6865;52.552;13.434;2023-10-31T04:15:56;9.70;;;7.37;;
13588;SDS011;6865;52.552;13.434;2023-10-31T04:18:23;10.67;;;7.07;;
13588;SDS011;6865;52.552;13.434;2023-10-31T04:20:50;10.97;;;7.03;;
13588;SDS011;6865;52.552;13.434;2023-10-31T04:23:16;11.07;;;6.67;;
13588;SDS011;6865;52.552;13.434;2023-10-31T04:25:43;10.67;;;6.93;;
13588;SDS011;6865;52.552;13.434;2023-10-31T04:28:10;11.47;;;7.87;;
13588;SDS011;6865;52.552;13.434;2023-10-31T04:30:36;11.73;;;7.00;;
13588;SDS011;6865;52.552;13.434;2023-10-31T04:33:03;10.27;;;7.77;;
13588;SDS011;6865;52.552;13.434;2023-10-31T04:35:30;11.83;;;7.70;;
13588;SDS011;6865;52.552;13.434;2023-10-31T04:37:56;11.33;;;8.10;;
13588;SDS011;6865;52.552;13.434;2023-10-31T04:40:23;10.27;;;8.00;;
13588;SDS011;6865;52.552;13.434;2023-10-31T04:42:50;10.83;;;8.80;;
13588;SDS011;6865;52.552;13.434;2023-10-31T04:45:16;14.30;;;9.30;;
13588;SDS011;6865;52.552;13.434;2023-10-31T04:47:43;11.50;;;9.10;;
13588;SDS011;6865;52.552;13.434;2023-10-31T04:50:10;12.23;;;9.23;;
13588;SDS011;6865;52.552;13.434;2023-10-31T04:52:37;12.37;;;9.40;;
13588;SDS011;6865;52.552;13.434;2023-10-31T04:55:03;13.90;;;9.70;;
13588;SDS011;6865;52.552;13.434;2023-10-31T04:57:31;11.87;;;9.13;;
13588;SDS011;6865;52.552;13.434;2023-10-31T04:59:57;13.27;;;9.60;;
13588;SDS011;6865;52.552;13.434;2023-10-31T05:02:25;14.63;;;10.13;;
13588;SDS011;6865;52.552;13.434;2023-10-31T05:04:52;14.57;;;9.60;;
13588;SDS011;6865;52.552;13.434;2023-10-31T05:07:19;16.47;;;10.63;;
13588;SDS011;6865;52.552;13.434;2023-10-31T05:09:45;15.30;;;10.90;;
13588;SDS011;6865;52.552;13.434;2023-10-31T05:12:12;13.77;;;9.20;;
13588;SDS011;6865;52.552;13.434;2023-10-31T05:14:39;13.67;;;10.00;;
13588;SDS011;6865;52.552;13.434;2023-10-31T05:17:07;15.30;;;10.80;;
13588;SDS011;6865;52.552;13.434;2023-10-31T05:19:33;13.03;;;10.90;;
13588;SDS011;6865;52.552;13.434;2023-10-31T05:22:00;14.60;;;11.47;;
13588;SDS011;6865;52.552;13.434;2023-10-31T05:24:27;17.07;;;11.90;;
13588;SDS011;6865;52.552;13.434;2023-10-31T05:26:53;16.47;;;12.17;;
13588;SDS011;6865;52.552;13.434;2023-10-31T05:29:20;18.57;;;12.03;;
13588;SDS011;6865;52.552;13.434;2023-10-31T05:31:47;16.17;;;10.83;;
13588;SDS011;6865;52.552;13.434;2023-10-31T05:34:13;12.27;;;10.17;;
13588;SDS011;6865;52.552;13.434;2023-10-31T05:36:40;14.23;;;10.93;;
13588;SDS011;6865;52.552;13.434;2023-10-31T05:39:07;12.30;;;9.47;;
13588;SDS011;6865;52.552;13.434;2023-10-31T05:41:34;9.80;;;8.80;;
13588;SDS011;6865;52.552;13.434;2023-10-31T05:44:01;11.50;;;9.17;;
13588;SDS011;6865;52.552;13.434;2023-10-31T05:46:28;11.30;;;8.57;;
13588;SDS011;6865;52.552;13.434;2023-10-31T05:48:55;10.87;;;8.53;;
13588;SDS011;6865;52.552;13.434;2023-10-31T05:51:21;9.67;;;7.97;;
13588;SDS011;6865;52.552;13.434;2023-10-31T05:53:48;9.30;;;7.53;;
13588;SDS011;6865;52.552;13.434;2023-10-31T05:56:15;9.90;;;7.80;;
13588;SDS011;6865;52.552;13.434;2023-10-31T05:58:42;9.07;;;7.07;;
13588;SDS011;6865;52.552;13.434;2023-10-31T06:01:09;7.53;;;6.77;;
13588;SDS011;6865;52.552;13.434;2023-10-31T06:03:36;7.87;;;6.40;;
13588;SDS011;6865;52.552;13.434;2023-10-31T06:06:04;7.23;;;6.13;;
13588;SDS011;6865;52.552;13.434;2023-10-31T06:08:31;7.00;;;6.30;;
13588;SDS011;6865;52.552;13.434;2023-10-31T06:10:59;7.20;;;6.30;;
13588;SDS011;6865;52.552;13.434;2023-10-31T06:13:26;6.70;;;5.90;;
13588;SDS011;6865;52.552;13.434;2023-10-31T06:15:56;7.90;;;5.73;;
13588;SDS011;6865;52.552;13.434;2023-10-31T06:18:27;7.23;;;6.27;;
13588;SDS011;6865;52.552;13.434;2023-10-31T06:20:54;6.97;;;6.13;;
13588;SDS011;6865;52.552;13.434;2023-10-31T06:23:21;9.50;;;7.03;;
13588;SDS011;6865;52.552;13.434;2023-10-31T06:25:48;9.60;;;6.57;;
13588;SDS011;6865;52.552;13.434;2023-10-31T06:28:15;8.87;;;7.10;;
13588;SDS011;6865;52.552;13.434;2023-10-31T06:30:42;8.20;;;7.30;;
13588;SDS011;6865;52.552;13.434;2023-10-31T06:33:09;10.20;;;7.50;;
13588;SDS011;6865;52.552;13.434;2023-10-31T06:35:36;9.20;;;7.50;;
13588;SDS011;6865;52.552;13.434;2023-10-31T06:38:03;10.03;;;8.10;;
13588;SDS011;6865;52.552;13.434;2023-10-31T06:40:30;10.43;;;8.13;;
13588;SDS011;6865;52.552;13.434;2023-10-31T06:42:57;9.57;;;8.50;;
13588;SDS011;6865;52.552;13.434;2023-10-31T06:45:23;11.80;;;9.03;;
13588;SDS011;6865;52.552;13.434;2023-10-31T06:47:50;11.10;;;8.40;;
13588;SDS011;6865;52.552;13.434;2023-10-31T06:50:17;10.17;;;9.03;;
13588;SDS011;6865;52.552;13.434;2023-10-31T06:52:46;10.27;;;8.87;;
13588;SDS011;6865;52.552;13.434;2023-10-31T06:55:13;8.53;;;7.63;;
13588;SDS011;6865;52.552;13.434;2023-10-31T06:57:39;10.13;;;7.67;;
13588;SDS011;6865;52.552;13.434;2023-10-31T07:00:06;9.97;;;7.10;;
13588;SDS011;6865;52.552;13.434;2023-10-31T07:02:35;9.97;;;7.63;;
13588;SDS011;6865;52.552;13.434;2023-10-31T07:05:02;9.20;;;7.43;;
13588;SDS011;6865;52.552;13.434;2023-10-31T07:07:30;8.67;;;6.77;;
13588;SDS011;6865;52.552;13.434;2023-10-31T07:09:56;8.87;;;7.43;;
13588;SDS011;6865;52.552;13.434;2023-10-31T07:12:23;9.87;;;7.27;;
13588;SDS011;6865;52.552;13.434;2023-10-31T07:14:50;9.67;;;6.60;;
13588;SDS011;6865;52.552;13.434;2023-10-31T07:17:17;9.23;;;5.63;;
13588;SDS011;6865;52.552;13.434;2023-10-31T07:19:44;7.07;;;5.93;;
13588;SDS011;6865;52.552;13.434;2023-10-31T07:22:10;8.03;;;6.00;;
13588;SDS011;6865;52.552;13.434;2023-10-31T07:24:37;6.17;;;5.57;;
13588;SDS011;6865;52.552;13.434;2023-10-31T07:27:04;6.00;;;5.30;;
13588;SDS011;6865;52.552;13.434;2023-10-31T07:29:30;6.90;;;4.97;;
13588;SDS011;6865;52.552;13.434;2023-10-31T07:31:57;5.73;;;3.93;;
13588;SDS011;6865;52.552;13.434;2023-10-31T07:34:24;3.63;;;3.07;;
13588;SDS011;6865;52.552;13.434;2023-10-31T07:36:51;4.17;;;3.77;;
13588;SDS011;6865;52.552;13.434;2023-10-31T07:39:17;4.97;;;3.10;;
13588;SDS011;6865;52.552;13.434;2023-10-31T07:41:44;11.70;;;10.40;;
13588;SDS011;6865;52.552;13.434;2023-10-31T07:44:11;3.40;;;3.10;;
13588;SDS011;6865;52.552;13.434;2023-10-31T07:46:38;3.37;;;2.60;;
13588;SDS011;6865;52.552;13.434;2023-10-31T07:49:05;3.60;;;2.80;;
13588;SDS011;6865;52.552;13.434;2023-10-31T07:51:31;2.77;;;2.53;;
13588;SDS011;6865;52.552;13.434;2023-10-31T07:53:58;3.67;;;2.90;;
13588;SDS011;6865;52.552;13.434;2023-10-31T07:56:25;3.07;;;2.60;;
13588;SDS011;6865;52.552;13.434;2023-10-31T07:58:55;4.70;;;3.37;;
13588;SDS011;6865;52.552;13.434;2023-10-31T08:01:23;4.53;;;2.60;;
13588;SDS011;6865;52.552;13.434;2023-10-31T08:03:50;2.80;;;2.33;;
13588;SDS011;6865;52.552;13.434;2023-10-31T08:06:17;3.10;;;2.50;;
13588;SDS011;6865;52.552;13.434;2023-10-31T08:08:44;3.67;;;2.40;;
13588;SDS011;6865;52.552;13.434;2023-10-31T08:11:10;2.40;;;1.87;;
13588;SDS011;6865;52.552;13.434;2023-10-31T08:13:38;4.40;;;1.90;;
13588;SDS011;6865;52.552;13.434;2023-10-31T08:16:05;2.80;;;1.80;;
13588;SDS011;6865;52.552;13.434;2023-10-31T08:18:34;2.10;;;1.80;;
13588;SDS011;6865;52.552;13.434;2023-10-31T08:21:01;8.43;;;2.03;;
13588;SDS011;6865;52.552;13.434;2023-10-31T08:23:29;2.70;;;1.63;;
13588;SDS011;6865;52.552;13.434;2023-10-31T08:25:56;1.53;;;1.43;;
13588;SDS011;6865;52.552;13.434;2023-10-31T08:28:23;5.23;;;1.60;;
13588;SDS011;6865;52.552;13.434;2023-10-31T08:30:50;2.17;;;1.20;;
13588;SDS011;6865;52.552;13.434;2023-10-31T08:33:17;1.80;;;1.40;;
13588;SDS011;6865;52.552;13.434;2023-10-31T08:35:44;3.20;;;1.43;;
13588;SDS011;6865;52.552;13.434;2023-10-31T08:38:14;2.63;;;1.43;;
13588;SDS011;6865;52.552;13.434;2023-10-31T08:40:54;1.80;;;1.10;;
13588;SDS011;6865;52.552;13.434;2023-10-31T08:43:21;1.30;;;1.07;;
13588;SDS011;6865;52.552;13.434;2023-10-31T08:45:48;1.50;;;1.10;;
13588;SDS011;6865;52.552;13.434;2023-10-31T08:48:14;1.30;;;0.90;;
13588;SDS011;6865;52.552;13.434;2023-10-31T08:50:42;2.27;;;1.20;;
13588;SDS011;6865;52.552;13.434;2023-10-31T08:53:09;1.80;;;0.90;;
13588;SDS011;6865;52.552;13.434;2023-10-31T08:55:36;1.30;;;1.20;;
13588;SDS011;6865;52.552;13.434;2023-10-31T08:58:02;1.07;;;0.97;;
13588;SDS011;6865;52.552;13.434;2023-10-31T09:00:29;1.90;;;1.00;;
13588;SDS011;6865;52.552;13.434;2023-10-31T09:02:56;3.83;;;1.40;;
13588;SDS011;6865;52.552;13.434;2023-10-31T09:05:23;1.70;;;1.30;;
13588;SDS011;6865;52.552;13.434;2023-10-31T09:07:49;1.60;;;1.30;;
13588;SDS011;6865;52.552;13.434;2023-10-31T09:10:16;1.47;;;1.07;;
13588;SDS011;6865;52.552;13.434;2023-10-31T09:12:43;2.57;;;1.40;;
13588;SDS011;6865;52.552;13.434;2023-10-31T09:15:09;1.53;;;1.10;;
13588;SDS011;6865;52.552;13.434;2023-10-31T09:17:36;3.13;;;1.17;;
13588;SDS011;6865;52.552;13.434;2023-10-31T09:20:03;1.00;;;0.90;;
13588;SDS011;6865;52.552;13.434;2023-10-31T09:22:31;1.00;;;0.70;;
13588;SDS011;6865;52.552;13.434;2023-10-31T09:24:58;2.03;;;0.80;;
13588;SDS011;6865;52.552;13.434;2023-10-31T09:27:25;4.10;;;0.80;;
13588;SDS011;6865;52.552;13.434;2023-10-31T09:29:51;1.47;;;0.90;;
13588;SDS011;6865;52.552;13.434;2023-10-31T09:32:18;2.70;;;0.90;;
13588;SDS011;6865;52.552;13.434;2023-10-31T09:34:45;2.63;;;0.90;;
13588;SDS011;6865;52.552;13.434;2023-10-31T09:37:12;1.37;;;0.80;;
13588;SDS011;6865;52.552;13.434;2023-10-31T09:39:38;1.37;;;1.00;;
13588;SDS011;6865;52.552;13.434;2023-10-31T09:42:05;4.47;;;1.00;;
13588;SDS011;6865;52.552;13.434;2023-10-31T09:44:33;1.40;;;0.97;;
13588;SDS011;6865;52.552;13.434;2023-10-31T09:47:01;1.07;;;0.90;;
13588;SDS011;6865;52.552;13.434;2023-10-31T09:49:28;2.17;;;0.90;;
13588;SDS011;6865;52.552;13.434;2023-10-31T09:51:55;2.37;;;0.87;;
13588;SDS011;6865;52.552;13.434;2023-10-31T09:54:22;1.47;;;1.00;;
13588;SDS011;6865;52.552;13.434;2023-10-31T09:56:51;2.50;;;1.20;;
13588;SDS011;6865;52.552;13.434;2023-10-31T09:59:18;1.20;;;1.10;;
13588;SDS011;6865;52.552;13.434;2023-10-31T10:01:45;1.93;;;1.20;;
13588;SDS011;6865;52.552;13.434;2023-10-31T10:04:11;1.57;;;0.97;;
13588;SDS011;6865;52.552;13.434;2023-10-31T10:06:58;2.03;;;1.30;;
13588;SDS011;6865;52.552;13.434;2023-10-31T10:09:29;2.30;;;1.10;;
13588;SDS011;6865;52.552;13.434;2023-10-31T10:11:58;1.47;;;1.00;;
13588;SDS011;6865;52.552;13.434;2023-10-31T10:14:26;2.10;;;1.13;;
13588;SDS011;6865;52.552;13.434;2023-10-31T10:16:54;4.03;;;1.20;;
13588;SDS011;6865;52.552;13.434;2023-10-31T10:19:22;2.23;;;1.20;;
13588;SDS011;6865;52.552;13.434;2023-10-31T10:21:51;1.97;;;1.40;;
13588;SDS011;6865;52.552;13.434;2023-10-31T10:24:22;1.93;;;1.40;;
13588;SDS011;6865;52.552;13.434;2023-10-31T10:26:50;1.90;;;1.10;;
13588;SDS011;6865;52.552;13.434;2023-10-31T10:29:17;1.77;;;1.30;;
13588;SDS011;6865;52.552;13.434;2023-10-31T10:31:44;1.47;;;1.10;;
13588;SDS011;6865;52.552;13.434;2023-10-31T10:34:13;2.00;;;1.20;;
13588;SDS011;6865;52.552;13.434;2023-10-31T10:36:40;2.03;;;1.53;;
13588;SDS011;6865;52.552;13.434;2023-10-31T10:39:18;1.40;;;1.30;;
13588;SDS011;6865;52.552;13.434;2023-10-31T10:41:53;2.20;;;1.37;;
13588;SDS011;6865;52.552;13.434;2023-10-31T10:44:29;2.30;;;1.43;;
13588;SDS011;6865;52.552;13.434;2023-10-31T10:47:00;2.10;;;1.60;;
13588;SDS011;6865;52.552;13.434;2023-10-31T10:49:29;1.70;;;1.43;;
13588;SDS011;6865;52.552;13.434;2023-10-31T10:52:01;2.53;;;1.40;;
13588;SDS011;6865;52.552;13.434;2023-10-31T10:54:49;1.80;;;1.40;;
13588;SDS011;6865;52.552;13.434;2023-10-31T11:00:05;2.20;;;1.70;;
13588;SDS011;6865;52.552;13.434;2023-10-31T11:02:41;3.70;;;1.50;;
13588;SDS011;6865;52.552;13.434;2023-10-31T11:05:09;1.63;;;1.53;;
13588;SDS011;6865;52.552;13.434;2023-10-31T11:07:36;1.43;;;1.33;;
13588;SDS011;6865;52.552;13.434;2023-10-31T11:10:04;3.23;;;1.50;;
13588;SDS011;6865;52.552;13.434;2023-10-31T11:12:32;3.67;;;1.57;;
13588;SDS011;6865;52.552;13.434;2023-10-31T11:14:59;2.33;;;1.67;;
13588;SDS011;6865;52.552;13.434;2023-10-31T11:17:29;3.10;;;1.60;;
13588;SDS011;6865;52.552;13.434;2023-10-31T11:20:00;2.33;;;1.70;;
13588;SDS011;6865;52.552;13.434;2023-10-31T11:22:39;2.47;;;1.90;;
13588;SDS011;6865;52.552;13.434;2023-10-31T11:25:07;2.57;;;2.10;;
13588;SDS011;6865;52.552;13.434;2023-10-31T11:27:47;4.30;;;1.80;;
13588;SDS011;6865;52.552;13.434;2023-10-31T11:30:20;2.50;;;1.80;;
13588;SDS011;6865;52.552;13.434;2023-10-31T11:32:48;3.27;;;2.00;;
13588;SDS011;6865;52.552;13.434;2023-10-31T11:35:17;3.00;;;1.93;;
13588;SDS011;6865;52.552;13.434;2023-10-31T11:37:47;2.93;;;2.00;;
13588;SDS011;6865;52.552;13.434;2023-10-31T11:40:17;2.63;;;1.90;;
13588;SDS011;6865;52.552;13.434;2023-10-31T11:42:49;1.77;;;1.63;;
13588;SDS011;6865;52.552;13.434;2023-10-31T11:45:24;2.43;;;2.00;;
13588;SDS011;6865;52.552;13.434;2023-10-31T11:47:52;2.90;;;1.87;;
13588;SDS011;6865;52.552;13.434;2023-10-31T11:50:21;2.00;;;1.80;;
13588;SDS011;6865;52.552;13.434;2023-10-31T11:55:34;2.33;;;1.60;;
13588;SDS011;6865;52.552;13.434;2023-10-31T11:58:24;3.00;;;1.60;;
13588;SDS011;6865;52.552;13.434;2023-10-31T12:01:03;1.87;;;1.60;;
13588;SDS011;6865;52.552;13.434;2023-10-31T12:03:41;3.97;;;1.67;;
13588;SDS011;6865;52.552;13.434;2023-10-31T12:06:10;3.53;;;1.60;;
13588;SDS011;6865;52.552;13.434;2023-10-31T12:08:37;3.00;;;1.30;;
13588;SDS011;6865;52.552;13.434;2023-10-31T12:11:09;2.03;;;1.53;;
13588;SDS011;6865;52.552;13.434;2023-10-31T12:13:40;3.93;;;1.50;;
13588;SDS011;6865;52.552;13.434;2023-10-31T12:16:09;1.60;;;1.40;;
13588;SDS011;6865;52.552;13.434;2023-10-31T12:18:37;3.23;;;1.27;;
13588;SDS011;6865;52.552;13.434;2023-10-31T12:21:05;2.77;;;1.50;;
13588;SDS011;6865;52.552;13.434;2023-10-31T12:23:33;3.43;;;1.57;;
13588;SDS011;6865;52.552;13.434;2023-10-31T12:26:00;1.77;;;1.20;;
13588;SDS011;6865;52.552;13.434;2023-10-31T12:28:27;1.97;;;1.30;;
13588;SDS011;6865;52.552;13.434;2023-10-31T12:30:55;2.00;;;1.20;;
13588;SDS011;6865;52.552;13.434;2023-10-31T12:33:24;1.20;;;1.00;;
13588;SDS011;6865;52.552;13.434;2023-10-31T12:35:55;1.50;;;1.10;;
13588;SDS011;6865;52.552;13.434;2023-10-31T12:38:23;1.90;;;1.17;;
13588;SDS011;6865;52.552;13.434;2023-10-31T12:40:51;4.50;;;1.00;;
13588;SDS011;6865;52.552;13.434;2023-10-31T12:43:18;1.70;;;1.40;;
13588;SDS011;6865;52.552;13.434;2023-10-31T12:45:45;2.23;;;1.00;;
13588;SDS011;6865;52.552;13.434;2023-10-31T12:48:12;2.93;;;1.10;;
13588;SDS011;6865;52.552;13.434;2023-10-31T12:50:38;1.07;;;0.90;;
13588;SDS011;6865;52.552;13.434;2023-10-31T12:53:08;1.37;;;0.90;;
13588;SDS011;6865;52.552;13.434;2023-10-31T12:55:41;0.90;;;0.83;;
13588;SDS011;6865;52.552;13.434;2023-10-31T12:58:08;1.23;;;1.00;;
13588;SDS011;6865;52.552;13.434;2023-10-31T13:00:45;1.20;;;1.00;;
13588;SDS011;6865;52.552;13.434;2023-10-31T13:03:12;1.57;;;0.97;;
13588;SDS011;6865;52.552;13.434;2023-10-31T13:05:41;0.90;;;0.90;;
13588;SDS011;6865;52.552;13.434;2023-10-31T13:08:14;1.67;;;1.03;;
13588;SDS011;6865;52.552;13.434;2023-10-31T13:10:42;3.80;;;0.90;;
13588;SDS011;6865;52.552;13.434;2023-10-31T13:13:10;1.10;;;0.80;;
13588;SDS011;6865;52.552;13.434;2023-10-31T13:15:38;0.80;;;0.80;;
13588;SDS011;6865;52.552;13.434;2023-10-31T13:18:05;4.10;;;0.87;;
13588;SDS011;6865;52.552;13.434;2023-10-31T13:20:32;1.87;;;0.90;;
13588;SDS011;6865;52.552;13.434;2023-10-31T13:22:59;2.63;;;0.97;;
13588;SDS011;6865;52.552;13.434;2023-10-31T13:25:28;1.13;;;0.83;;
13588;SDS011;6865;52.552;13.434;2023-10-31T13:27:57;1.57;;;0.70;;
13588;SDS011;6865;52.552;13.434;2023-10-31T13:30:24;1.40;;;1.10;;
13588;SDS011;6865;52.552;13.434;2023-10-31T13:32:51;3.97;;;2.20;;
13588;SDS011;6865;52.552;13.434;2023-10-31T13:35:19;1.30;;;0.90;;
13588;SDS011;6865;52.552;13.434;2023-10-31T13:37:46;1.20;;;1.10;;
13588;SDS011;6865;52.552;13.434;2023-10-31T13:40:13;0.90;;;0.90;;
13588;SDS011;6865;52.552;13.434;2023-10-31T13:42:40;1.20;;;1.00;;
13588;SDS011;6865;52.552;13.434;2023-10-31T13:45:07;4.57;;;1.00;;
13588;SDS011;6865;52.552;13.434;2023-10-31T13:47:34;1.43;;;1.00;;
13588;SDS011;6865;52.552;13.434;2023-10-31T13:50:01;1.13;;;1.03;;
13588;SDS011;6865;52.552;13.434;2023-10-31T13:52:28;1.07;;;0.90;;
13588;SDS011;6865;52.552;13.434;2023-10-31T13:54:55;1.90;;;1.00;;
13588;SDS011;6865;52.552;13.434;2023-10-31T13:57:22;2.37;;;1.10;;
13588;SDS011;6865;52.552;13.434;2023-10-31T13:59:49;2.50;;;1.07;;
13588;SDS011;6865;52.552;13.434;2023-10-31T14:02:17;2.53;;;1.30;;
13588;SDS011;6865;52.552;13.434;2023-10-31T14:04:44;1.80;;;1.00;;
13588;SDS011;6865;52.552;13.434;2023-10-31T14:07:13;0.90;;;0.80;;
13588;SDS011;6865;52.552;13.434;2023-10-31T14:09:47;1.17;;;0.80;;
13588;SDS011;6865;52.552;13.434;2023-10-31T14:12:14;0.93;;;0.80;;
13588;SDS011;6865;52.552;13.434;2023-10-31T14:14:41;0.93;;;0.70;;
13588;SDS011;6865;52.552;13.434;2023-10-31T14:17:08;1.73;;;0.90;;
13588;SDS011;6865;52.552;13.434;2023-10-31T14:19:34;1.43;;;0.80;;
13588;SDS011;6865;52.552;13.434;2023-10-31T14:22:01;0.97;;;0.90;;
13588;SDS011;6865;52.552;13.434;2023-10-31T14:24:28;1.80;;;0.67;;
13588;SDS011;6865;52.552;13.434;2023-10-31T14:26:54;1.10;;;0.90;;
13588;SDS011;6865;52.552;13.434;2023-10-31T14:29:21;2.53;;;0.70;;
13588;SDS011;6865;52.552;13.434;2023-10-31T14:31:49;1.70;;;0.83;;
13588;SDS011;6865;52.552;13.434;2023-10-31T14:34:15;1.53;;;0.90;;
13588;SDS011;6865;52.552;13.434;2023-10-31T14:36:42;1.00;;;0.70;;
13588;SDS011;6865;52.552;13.434;2023-10-31T14:39:09;1.33;;;0.97;;
13588;SDS011;6865;52.552;13.434;2023-10-31T14:41:36;6.00;;;1.10;;
13588;SDS011;6865;52.552;13.434;2023-10-31T14:44:03;1.60;;;1.07;;
13588;SDS011;6865;52.552;13.434;2023-10-31T14:46:30;2.30;;;1.17;;
13588;SDS011;6865;52.552;13.434;2023-10-31T14:48:58;1.07;;;0.90;;
13588;SDS011;6865;52.552;13.434;2023-10-31T14:51:24;1.20;;;0.90;;
13588;SDS011;6865;52.552;13.434;2023-10-31T14:53:51;0.93;;;0.73;;